Time;durP1;ratioP1;P1;durP2;ratioP2;P2;SDS_P1;SDS_P2;PMS_P1;PMS_P2;Temp;Humidity;BMP_temperature;BMP_pressure;BME280_temperature;BME280_humidity;BME280_pressure;Samples;Min_cycle;Max_cycle;Signal;HPM_P1;HPM_P2
2023/12/22 00:01:23;;;;;;;1.98;1.20;;;9.40;81.40;;;;;;5031385;28;20032;-76
2023/12/22 00:03:49;;;;;;;2.97;1.27;;;9.40;81.40;;;;;;5024502;28;20198;-75
2023/12/22 00:06:15;;;;;;;1.58;1.17;;;9.40;81.50;;;;;;4993355;28;20045;-76
2023/12/22 00:08:41;;;;;;;4.47;1.30;;;9.40;81.90;;;;;;5040414;28;20436;-76
2023/12/22 00:11:07;;;;;;;1.60;1.20;;;9.40;81.50;;;;;;5045906;28;20033;-75
2023/12/22 00:13:33;;;;;;;2.50;1.20;;;9.40;81.50;;;;;;5032545;28;20078;-75
2023/12/22 00:16:00;;;;;;;2.53;1.60;;;9.30;81.50;;;;;;5025195;28;20041;-75
2023/12/22 00:18:26;;;;;;;3.83;1.35;;;9.40;81.50;;;;;;5022048;28;20029;-76
2023/12/22 00:20:52;;;;;;;1.92;1.23;;;9.30;81.50;;;;;;5024669;28;20546;-76
2023/12/22 00:23:18;;;;;;;2.78;1.40;;;9.30;81.50;;;;;;5014294;28;20025;-76
2023/12/22 00:25:44;;;;;;;1.98;1.20;;;9.30;81.50;;;;;;5031209;28;20061;-76
2023/12/22 00:28:10;;;;;;;1.83;1.30;;;9.30;81.50;;;;;;5042279;28;20032;-76
2023/12/22 00:30:36;;;;;;;3.35;1.50;;;9.30;81.50;;;;;;5032103;28;20041;-76
2023/12/22 00:33:02;;;;;;;3.08;1.60;;;9.30;81.50;;;;;;5033616;28;20405;-77
2023/12/22 00:35:28;;;;;;;1.77;1.30;;;9.30;81.50;;;;;;5035040;28;20045;-76
2023/12/22 00:37:54;;;;;;;1.55;1.30;;;9.30;82.10;;;;;;5040475;28;20029;-77
2023/12/22 00:40:20;;;;;;;1.33;1.10;;;9.30;81.50;;;;;;4988601;28;20049;-77
2023/12/22 00:42:45;;;;;;;2.63;1.50;;;9.30;81.50;;;;;;5025279;28;20029;-77
2023/12/22 00:45:11;;;;;;;2.28;1.33;;;9.30;81.50;;;;;;5030628;28;20458;-77
2023/12/22 00:47:37;;;;;;;2.30;1.13;;;9.30;81.50;;;;;;5025145;28;20033;-77
2023/12/22 00:50:04;;;;;;;1.25;1.10;;;9.30;81.50;;;;;;5040064;28;20029;-76
2023/12/22 00:52:30;;;;;;;1.40;1.08;;;9.30;81.50;;;;;;5040279;28;20021;-76
2023/12/22 00:54:56;;;;;;;1.30;1.00;;;9.30;81.50;;;;;;5026971;28;20034;-76
2023/12/22 00:57:22;;;;;;;1.27;1.10;;;9.30;82.10;;;;;;5045901;28;20039;-76
2023/12/22 00:59:48;;;;;;;1.45;1.20;;;9.30;81.50;;;;;;5038838;28;20071;-78
2023/12/22 01:02:15;;;;;;;1.33;1.00;;;9.30;81.50;;;;;;5029514;28;20032;-77
2023/12/22 01:04:41;;;;;;;1.70;1.10;;;9.30;81.50;;;;;;5027877;28;20052;-77
2023/12/22 01:07:10;;;;;;;1.90;1.20;;;9.30;81.50;;;;;;5020355;28;20474;-77
2023/12/22 01:09:37;;;;;;;2.15;1.23;;;9.30;81.50;;;;;;5027953;28;20106;-77
2023/12/22 01:12:07;;;;;;;1.88;1.27;;;9.30;81.50;;;;;;5030561;28;20032;-77
2023/12/22 01:14:33;;;;;;;2.28;1.20;;;9.30;81.50;;;;;;5038038;28;20029;-78
2023/12/22 01:17:00;;;;;;;1.73;1.00;;;9.30;81.50;;;;;;5012165;28;20472;-76
2023/12/22 01:19:26;;;;;;;0.90;0.90;;;9.20;81.40;;;;;;5028851;28;20397;-76
2023/12/22 01:21:52;;;;;;;1.10;1.00;;;9.30;81.50;;;;;;5009272;28;20041;-77
2023/12/22 01:24:20;;;;;;;1.95;1.10;;;9.30;81.50;;;;;;5027942;28;20116;-77
2023/12/22 01:26:46;;;;;;;1.15;1.00;;;9.30;81.40;;;;;;4988275;28;20160;-77
2023/12/22 01:29:12;;;;;;;1.50;1.20;;;9.30;81.40;;;;;;5028681;28;20048;-76
2023/12/22 01:31:37;;;;;;;1.20;1.00;;;9.20;81.40;;;;;;5021152;28;20022;-76
2023/12/22 01:34:03;;;;;;;3.83;1.10;;;9.20;81.40;;;;;;5007518;28;20036;-76
2023/12/22 01:36:29;;;;;;;2.28;1.10;;;9.20;81.40;;;;;;5005484;28;20592;-76
2023/12/22 01:38:54;;;;;;;1.77;1.20;;;9.20;81.40;;;;;;5017919;28;20092;-76
2023/12/22 01:41:20;;;;;;;1.27;1.10;;;9.20;81.50;;;;;;5029647;28;20049;-77
2023/12/22 01:43:46;;;;;;;2.72;1.17;;;9.20;81.50;;;;;;5006471;28;20090;-77
2023/12/22 01:46:12;;;;;;;1.30;1.00;;;9.20;81.50;;;;;;4996291;28;20039;-76
2023/12/22 01:48:39;;;;;;;2.25;1.10;;;9.20;81.50;;;;;;5012544;28;20025;-76
2023/12/22 01:51:06;;;;;;;0.90;0.90;;;9.20;81.50;;;;;;5009486;28;20113;-77
2023/12/22 01:53:33;;;;;;;1.10;1.00;;;9.20;82.10;;;;;;5042325;28;20033;-77
2023/12/22 01:56:00;;;;;;;1.13;1.00;;;9.20;81.60;;;;;;5019492;28;20063;-76
2023/12/22 01:58:27;;;;;;;1.25;1.15;;;9.20;81.50;;;;;;5032594;28;20041;-76
2023/12/22 02:00:53;;;;;;;1.70;1.10;;;9.20;81.50;;;;;;5024746;28;20437;-76
2023/12/22 02:03:20;;;;;;;1.73;1.13;;;9.20;81.50;;;;;;5045935;28;20025;-77
2023/12/22 02:05:46;;;;;;;1.60;1.00;;;9.10;81.50;;;;;;5028587;28;21370;-76
2023/12/22 02:08:13;;;;;;;1.50;1.10;;;9.10;81.50;;;;;;5028241;28;20024;-76
2023/12/22 02:10:39;;;;;;;1.60;1.20;;;9.10;81.50;;;;;;5028582;28;20037;-76
2023/12/22 02:13:05;;;;;;;1.50;1.30;;;9.10;81.60;;;;;;5027905;28;20037;-77
2023/12/22 02:15:32;;;;;;;1.30;1.20;;;9.10;81.50;;;;;;5027731;28;20025;-76
2023/12/22 02:18:22;;;;;;;1.00;1.00;;;9.10;81.60;;;;;;5040507;28;20861;-76
2023/12/22 02:20:49;;;;;;;1.25;1.10;;;9.10;81.60;;;;;;5045896;28;20397;-76
2023/12/22 02:23:14;;;;;;;1.88;1.30;;;9.10;81.50;;;;;;5027693;28;20124;-76
2023/12/22 02:25:40;;;;;;;1.10;1.00;;;9.10;81.60;;;;;;5029295;28;20116;-76
2023/12/22 02:28:09;;;;;;;2.00;1.20;;;9.10;81.60;;;;;;5031250;28;20025;-76
2023/12/22 02:30:39;;;;;;;1.88;1.30;;;9.00;81.50;;;;;;5052595;28;20060;-76
2023/12/22 02:33:08;;;;;;;2.13;1.25;;;9.10;81.60;;;;;;5047172;28;20078;-76
2023/12/22 02:35:38;;;;;;;3.60;1.50;;;9.10;81.60;;;;;;5027878;28;20029;-77
2023/12/22 02:38:05;;;;;;;2.38;1.38;;;9.10;81.60;;;;;;5041455;28;20047;-76
2023/12/22 02:40:31;;;;;;;2.08;1.10;;;9.10;81.60;;;;;;5023278;28;20058;-77
2023/12/22 02:42:57;;;;;;;2.72;1.40;;;9.10;81.60;;;;;;5031457;28;20055;-75
2023/12/22 02:45:23;;;;;;;2.33;1.38;;;9.00;81.60;;;;;;5039763;28;20025;-79
2023/12/22 02:47:49;;;;;;;1.73;1.23;;;9.00;81.60;;;;;;5041971;28;20041;-76
2023/12/22 02:50:16;;;;;;;1.30;1.20;;;9.00;81.60;;;;;;5033076;28;20075;-74
2023/12/22 02:52:42;;;;;;;1.30;1.20;;;9.00;81.60;;;;;;5028169;28;20041;-77
2023/12/22 02:55:08;;;;;;;3.03;1.40;;;9.00;81.60;;;;;;5043472;28;20059;-76
2023/12/22 02:57:34;;;;;;;1.45;1.10;;;9.00;81.60;;;;;;5041723;28;20022;-75
2023/12/22 03:00:00;;;;;;;1.80;1.25;;;9.00;81.60;;;;;;5032612;28;20098;-76
2023/12/22 03:02:26;;;;;;;1.33;1.20;;;9.00;81.60;;;;;;5038401;28;20025;-76
2023/12/22 03:04:52;;;;;;;1.20;1.10;;;9.00;81.60;;;;;;5041614;28;20043;-77
2023/12/22 03:07:18;;;;;;;2.75;1.40;;;9.00;81.60;;;;;;5024911;28;20029;-77
2023/12/22 03:09:44;;;;;;;1.55;1.20;;;9.00;81.60;;;;;;5040685;28;20115;-77
2023/12/22 03:12:10;;;;;;;2.42;1.40;;;9.00;81.60;;;;;;5042065;28;20075;-77
2023/12/22 03:14:36;;;;;;;1.20;1.10;;;9.00;81.60;;;;;;5041206;28;20029;-77
2023/12/22 03:17:06;;;;;;;2.22;1.17;;;9.00;81.60;;;;;;5026543;28;20083;-77
2023/12/22 03:19:33;;;;;;;1.42;1.20;;;9.00;81.70;;;;;;5026766;28;20042;-77
2023/12/22 03:21:59;;;;;;;2.42;1.17;;;9.00;81.60;;;;;;5016945;28;20493;-77
2023/12/22 03:24:26;;;;;;;2.33;1.33;;;9.00;81.60;;;;;;5028607;28;20053;-77
2023/12/22 03:26:52;;;;;;;1.85;1.30;;;9.00;81.70;;;;;;5027431;28;20029;-77
2023/12/22 03:29:18;;;;;;;2.17;1.23;;;9.00;81.70;;;;;;5023835;28;20440;-77
2023/12/22 03:31:45;;;;;;;2.20;1.30;;;9.00;81.60;;;;;;5024269;28;20416;-77
2023/12/22 03:34:11;;;;;;;1.95;1.27;;;8.90;81.60;;;;;;5044137;28;20043;-77
2023/12/22 03:36:37;;;;;;;2.35;1.42;;;9.00;81.70;;;;;;5031609;28;20032;-77
2023/12/22 03:39:03;;;;;;;1.73;1.17;;;9.00;81.60;;;;;;5031497;28;20569;-77
2023/12/22 03:41:30;;;;;;;2.80;1.30;;;9.00;81.70;;;;;;5041725;28;20045;-77
2023/12/22 03:43:56;;;;;;;2.90;1.60;;;9.00;81.60;;;;;;5033393;28;20029;-78
2023/12/22 03:46:23;;;;;;;2.83;1.20;;;9.00;81.60;;;;;;5011115;28;20505;-77
2023/12/22 03:48:52;;;;;;;4.13;1.45;;;9.00;81.60;;;;;;4990064;28;20359;-77
2023/12/22 03:51:17;;;;;;;2.15;1.10;;;9.00;81.60;;;;;;5016541;28;20097;-77
2023/12/22 03:53:43;;;;;;;2.47;1.30;;;8.90;81.50;;;;;;5011232;28;20128;-77
2023/12/22 03:56:09;;;;;;;2.65;1.27;;;9.00;81.60;;;;;;5028111;28;20060;-78
2023/12/22 03:58:35;;;;;;;3.08;1.63;;;8.90;81.50;;;;;;5040084;28;20033;-77
2023/12/22 04:01:02;;;;;;;3.45;1.45;;;9.00;81.60;;;;;;5026665;28;20451;-77
2023/12/22 04:03:27;;;;;;;3.35;1.52;;;8.90;81.50;;;;;;5020794;28;20021;-76
2023/12/22 04:05:53;;;;;;;3.17;1.30;;;8.90;81.50;;;;;;5044254;28;20347;-77
2023/12/22 04:08:20;;;;;;;2.53;1.40;;;8.90;81.50;;;;;;5032745;28;20100;-77
2023/12/22 04:10:47;;;;;;;3.03;1.20;;;8.90;81.50;;;;;;5031618;28;20892;-78
2023/12/22 04:13:12;;;;;;;2.47;1.20;;;8.90;81.50;;;;;;5027947;28;20033;-77
2023/12/22 04:15:38;;;;;;;1.98;1.30;;;8.90;81.40;;;;;;5018413;28;20087;-77
2023/12/22 04:18:04;;;;;;;2.05;1.20;;;8.90;81.40;;;;;;5007421;28;20048;-77
2023/12/22 04:20:31;;;;;;;1.58;1.10;;;8.90;81.50;;;;;;5002073;28;20045;-77
2023/12/22 04:22:57;;;;;;;2.33;1.30;;;8.90;81.40;;;;;;5030983;28;20025;-77
2023/12/22 04:25:24;;;;;;;1.70;1.10;;;8.90;81.40;;;;;;5029836;28;20033;-78
2023/12/22 04:27:50;;;;;;;2.22;1.20;;;8.90;81.50;;;;;;5029757;28;20033;-77
2023/12/22 04:30:16;;;;;;;2.55;1.23;;;8.90;81.40;;;;;;5024040;28;20036;-77
2023/12/22 04:32:42;;;;;;;1.75;1.10;;;8.90;81.40;;;;;;5031879;28;20410;-77
2023/12/22 04:35:08;;;;;;;2.30;1.30;;;8.90;81.40;;;;;;5028367;28;20067;-77
2023/12/22 04:37:34;;;;;;;3.15;1.25;;;8.90;81.40;;;;;;5028401;28;20483;-78
2023/12/22 04:40:00;;;;;;;1.40;1.17;;;8.90;81.40;;;;;;5025289;28;20385;-77
2023/12/22 04:42:26;;;;;;;1.45;1.10;;;8.80;81.40;;;;;;5043341;28;20075;-77
2023/12/22 04:44:52;;;;;;;2.63;1.25;;;8.80;81.40;;;;;;5018805;28;20025;-77
2023/12/22 04:47:18;;;;;;;2.95;1.40;;;8.80;81.40;;;;;;5041539;28;20496;-76
2023/12/22 04:49:44;;;;;;;1.40;1.17;;;8.80;81.40;;;;;;5022243;28;20037;-77
2023/12/22 04:52:11;;;;;;;1.52;1.20;;;8.80;81.50;;;;;;5026430;28;20030;-77
2023/12/22 04:54:37;;;;;;;1.05;1.00;;;8.80;81.50;;;;;;5040032;28;20527;-77
2023/12/22 04:57:03;;;;;;;1.77;1.20;;;8.80;81.50;;;;;;5009145;28;20076;-77
2023/12/22 04:59:29;;;;;;;2.28;1.48;;;8.80;81.50;;;;;;5026056;28;20041;-76
2023/12/22 05:01:56;;;;;;;2.50;1.45;;;8.80;81.50;;;;;;5023371;28;20037;-78
2023/12/22 05:04:21;;;;;;;2.63;1.38;;;8.80;81.50;;;;;;5030786;28;20029;-77
2023/12/22 05:06:48;;;;;;;2.33;1.17;;;8.80;81.50;;;;;;5028057;28;20466;-77
2023/12/22 05:09:14;;;;;;;1.30;1.13;;;8.80;81.50;;;;;;5037901;28;20029;-77
2023/12/22 05:11:40;;;;;;;2.67;1.42;;;8.80;81.60;;;;;;5012201;28;20025;-77
2023/12/22 05:14:05;;;;;;;3.25;1.30;;;8.80;81.50;;;;;;5007440;28;20032;-77
2023/12/22 05:16:31;;;;;;;2.83;1.30;;;8.80;81.50;;;;;;5011623;28;20032;-77
2023/12/22 05:18:58;;;;;;;1.85;1.15;;;8.80;81.50;;;;;;5023260;28;20063;-74
2023/12/22 05:21:24;;;;;;;2.35;1.40;;;8.80;81.50;;;;;;5024050;28;20037;-77
2023/12/22 05:23:50;;;;;;;3.85;1.50;;;8.80;81.60;;;;;;5042763;28;20113;-78
2023/12/22 05:26:20;;;;;;;1.33;1.20;;;8.80;81.60;;;;;;5042610;28;20547;-77
2023/12/22 05:28:46;;;;;;;2.40;1.40;;;8.80;81.60;;;;;;5024828;28;20032;-77
2023/12/22 05:31:12;;;;;;;1.70;1.23;;;8.80;81.50;;;;;;5042575;28;20486;-76
2023/12/22 05:33:38;;;;;;;2.58;1.20;;;8.80;81.50;;;;;;5009289;28;20022;-77
2023/12/22 05:36:04;;;;;;;1.88;1.27;;;8.80;81.50;;;;;;5013118;28;20029;-77
2023/12/22 05:38:31;;;;;;;1.20;1.10;;;8.80;81.50;;;;;;5025748;28;20114;-77
2023/12/22 05:40:57;;;;;;;1.48;1.02;;;8.80;81.60;;;;;;5035406;28;20053;-77
2023/12/22 05:43:23;;;;;;;2.22;1.38;;;8.70;81.50;;;;;;5029530;28;20083;-77
2023/12/22 05:45:49;;;;;;;1.52;1.20;;;8.80;81.60;;;;;;5030073;28;20572;-77
2023/12/22 05:48:15;;;;;;;1.70;1.20;;;8.80;81.60;;;;;;5035571;28;20493;-78
2023/12/22 05:50:40;;;;;;;2.05;1.10;;;8.80;81.60;;;;;;5031185;28;20448;-77
2023/12/22 05:53:06;;;;;;;1.42;1.20;;;8.80;81.60;;;;;;4991946;28;20128;-77
2023/12/22 05:55:32;;;;;;;2.17;1.25;;;8.80;81.60;;;;;;5034405;28;20048;-77
2023/12/22 05:57:58;;;;;;;1.42;1.17;;;8.70;81.50;;;;;;4995309;28;20025;-77
2023/12/22 06:00:23;;;;;;;3.00;1.58;;;8.70;81.50;;;;;;5040764;28;20513;-78
2023/12/22 06:02:49;;;;;;;2.42;1.25;;;8.80;81.60;;;;;;5028007;28;20052;-77
2023/12/22 06:05:15;;;;;;;1.73;1.20;;;8.70;81.50;;;;;;5023844;28;20088;-77
2023/12/22 06:07:41;;;;;;;1.55;1.08;;;8.70;81.50;;;;;;5015124;28;20033;-77
2023/12/22 06:10:09;;;;;;;1.70;1.27;;;8.70;81.50;;;;;;5028479;28;20037;-76
2023/12/22 06:12:35;;;;;;;3.53;1.33;;;8.70;81.60;;;;;;5042318;28;20045;-77
2023/12/22 06:15:01;;;;;;;1.70;1.30;;;8.70;81.50;;;;;;5011440;28;20026;-77
2023/12/22 06:17:27;;;;;;;1.30;1.20;;;8.70;81.50;;;;;;5013297;28;20029;-77
2023/12/22 06:19:52;;;;;;;2.63;1.83;;;8.80;81.60;;;;;;5031540;28;20035;-78
2023/12/22 06:22:18;;;;;;;2.22;1.27;;;8.70;81.50;;;;;;5011378;28;20102;-77
2023/12/22 06:24:44;;;;;;;1.73;1.35;;;8.70;81.50;;;;;;5022711;28;20435;-76
2023/12/22 06:27:10;;;;;;;2.45;1.20;;;8.70;81.60;;;;;;5028298;28;20025;-77
2023/12/22 06:29:36;;;;;;;3.47;1.42;;;8.80;81.60;;;;;;5008539;28;21362;-76
2023/12/22 06:32:02;;;;;;;3.65;1.40;;;8.80;81.60;;;;;;5023530;28;20116;-77
2023/12/22 06:34:28;;;;;;;3.85;1.50;;;8.70;81.60;;;;;;5012667;28;20056;-77
2023/12/22 06:36:54;;;;;;;2.83;1.20;;;8.80;81.60;;;;;;5011153;28;20112;-77
2023/12/22 06:39:20;;;;;;;1.98;1.27;;;8.80;81.60;;;;;;5042428;28;20033;-76
2023/12/22 06:41:45;;;;;;;1.52;1.40;;;8.80;81.60;;;;;;5041794;28;20053;-77
2023/12/22 06:44:11;;;;;;;2.70;1.20;;;8.70;81.60;;;;;;5028687;28;20552;-77
2023/12/22 06:46:37;;;;;;;3.58;1.30;;;8.80;82.30;;;;;;5034380;28;20090;-77
2023/12/22 06:49:03;;;;;;;2.65;1.40;;;8.80;81.60;;;;;;5014129;28;20470;-77
2023/12/22 06:51:30;;;;;;;1.77;1.20;;;8.80;81.70;;;;;;5040245;28;20090;-77
2023/12/22 06:53:59;;;;;;;3.97;1.60;;;8.80;81.70;;;;;;5033921;28;20108;-78
2023/12/22 06:56:27;;;;;;;2.85;1.48;;;8.80;81.70;;;;;;5021180;28;20047;-78
2023/12/22 06:58:55;;;;;;;2.13;1.25;;;8.80;81.70;;;;;;5042478;28;20234;-77
2023/12/22 07:01:22;;;;;;;3.65;1.52;;;8.80;81.70;;;;;;5038953;28;20572;-77
2023/12/22 07:03:48;;;;;;;2.35;1.40;;;8.80;81.70;;;;;;5010561;28;20029;-78
2023/12/22 07:06:20;;;;;;;2.88;1.40;;;8.80;81.70;;;;;;5030636;28;20274;-78
2023/12/22 07:09:11;;;;;;;1.60;1.20;;;8.80;81.70;;;;;;5020038;28;20040;-76
2023/12/22 07:11:37;;;;;;;1.73;1.40;;;8.80;81.70;;;;;;5040654;28;20029;-77
2023/12/22 07:14:03;;;;;;;1.67;1.42;;;8.80;81.60;;;;;;5041029;28;20801;-77
2023/12/22 07:16:28;;;;;;;1.27;1.15;;;8.80;81.60;;;;;;5011360;28;20650;-77
2023/12/22 07:18:54;;;;;;;4.13;1.55;;;8.80;81.70;;;;;;5013939;28;20387;-77
2023/12/22 07:21:20;;;;;;;3.25;1.30;;;8.80;81.70;;;;;;5033020;28;20037;-77
2023/12/22 07:23:46;;;;;;;1.73;1.20;;;8.80;82.30;;;;;;5013561;28;20040;-77
2023/12/22 07:26:12;;;;;;;2.50;1.27;;;8.90;81.70;;;;;;5045341;28;20546;-77
2023/12/22 07:28:38;;;;;;;3.00;1.50;;;8.90;81.70;;;;;;5035226;28;20041;-77
2023/12/22 07:31:05;;;;;;;2.80;1.40;;;8.90;81.70;;;;;;5032234;28;20041;-77
2023/12/22 07:33:31;;;;;;;2.70;1.85;;;8.90;81.70;;;;;;5016049;28;20044;-77
2023/12/22 07:36:00;;;;;;;2.75;1.30;;;8.90;81.70;;;;;;5032710;28;20026;-78
2023/12/22 07:38:29;;;;;;;2.33;1.30;;;8.90;81.70;;;;;;5016312;28;20362;-77
2023/12/22 07:40:55;;;;;;;2.20;1.40;;;8.90;81.70;;;;;;5030466;28;20057;-77
2023/12/22 07:43:20;;;;;;;2.85;1.65;;;9.00;81.70;;;;;;4993765;28;20055;-77
2023/12/22 07:45:47;;;;;;;2.70;1.40;;;9.00;81.70;;;;;;5028953;28;20033;-77
2023/12/22 07:48:14;;;;;;;2.58;1.52;;;9.00;82.30;;;;;;4993390;28;20098;-77
2023/12/22 07:50:41;;;;;;;3.10;1.60;;;9.00;81.70;;;;;;5012572;28;20401;-78
2023/12/22 07:53:08;;;;;;;3.30;1.60;;;9.00;81.70;;;;;;5038261;28;20053;-77
2023/12/22 07:55:34;;;;;;;5.40;1.77;;;9.00;81.60;;;;;;5043400;28;20048;-78
2023/12/22 07:58:00;;;;;;;3.30;1.50;;;9.00;81.70;;;;;;5031154;28;20026;-79
2023/12/22 08:00:25;;;;;;;3.67;1.65;;;9.00;81.60;;;;;;5016573;28;20087;-77
2023/12/22 08:02:52;;;;;;;4.45;1.73;;;9.00;81.60;;;;;;5023216;28;20444;-77
2023/12/22 08:05:18;;;;;;;6.40;2.03;;;9.00;81.70;;;;;;5021300;28;20366;-77
2023/12/22 08:07:44;;;;;;;4.55;2.05;;;9.00;81.70;;;;;;5040553;28;20032;-78
2023/12/22 08:10:10;;;;;;;3.28;1.77;;;9.10;81.70;;;;;;5038598;28;20044;-77
2023/12/22 08:12:36;;;;;;;3.63;1.50;;;9.10;81.60;;;;;;5027802;28;20237;-78
2023/12/22 08:15:03;;;;;;;4.22;1.85;;;9.10;81.60;;;;;;5029268;28;20501;-77
2023/12/22 08:17:29;;;;;;;3.70;2.05;;;9.10;81.60;;;;;;5017330;28;20107;-77
2023/12/22 08:19:56;;;;;;;4.18;2.10;;;9.10;81.60;;;;;;5035572;28;20153;-77
2023/12/22 08:22:23;;;;;;;3.22;1.75;;;9.10;81.60;;;;;;5029109;28;20029;-77
2023/12/22 08:24:49;;;;;;;2.83;1.58;;;9.10;81.60;;;;;;5028032;28;20068;-77
2023/12/22 08:27:15;;;;;;;3.83;1.58;;;9.20;81.60;;;;;;5019120;28;20040;-77
2023/12/22 08:29:41;;;;;;;4.40;1.95;;;9.20;81.60;;;;;;5028174;28;20029;-78
2023/12/22 08:32:06;;;;;;;4.32;1.80;;;9.20;81.60;;;;;;5042357;28;20056;-78
2023/12/22 08:34:32;;;;;;;3.80;1.83;;;9.20;81.60;;;;;;5029738;28;20129;-78
2023/12/22 08:36:58;;;;;;;3.25;1.60;;;9.20;81.60;;;;;;5013197;28;20032;-77
2023/12/22 08:39:26;;;;;;;3.97;1.70;;;9.30;81.60;;;;;;5005270;28;20040;-77
2023/12/22 08:41:53;;;;;;;3.70;1.85;;;9.30;81.60;;;;;;5013634;28;20465;-78
2023/12/22 08:44:19;;;;;;;4.50;1.70;;;9.30;81.60;;;;;;5019527;28;20033;-78
2023/12/22 08:46:45;;;;;;;3.00;1.48;;;9.30;81.60;;;;;;5026241;28;20552;-78
2023/12/22 08:49:11;;;;;;;2.22;1.70;;;9.30;81.50;;;;;;5046666;28;20041;-78
2023/12/22 08:51:37;;;;;;;3.00;1.58;;;9.30;81.50;;;;;;5031470;28;20075;-77
2023/12/22 08:54:06;;;;;;;2.78;1.70;;;9.30;81.50;;;;;;5044206;28;20033;-77
2023/12/22 08:56:31;;;;;;;4.38;1.52;;;9.40;81.50;;;;;;4989149;28;20075;-78
2023/12/22 08:59:00;;;;;;;3.35;1.60;;;9.40;81.50;;;;;;5045860;28;20033;-78
2023/12/22 09:01:26;;;;;;;2.47;1.67;;;9.40;81.60;;;;;;5032287;28;20048;-78
2023/12/22 09:03:52;;;;;;;3.10;1.70;;;9.40;81.60;;;;;;5021057;28;20390;-78
2023/12/22 09:06:20;;;;;;;4.57;1.73;;;9.40;81.50;;;;;;5026609;28;20047;-78
2023/12/22 09:08:48;;;;;;;2.85;1.70;;;9.40;81.50;;;;;;5032914;28;20033;-78
2023/12/22 09:11:16;;;;;;;3.90;1.52;;;9.40;81.50;;;;;;5045693;28;20029;-78
2023/12/22 09:13:43;;;;;;;2.95;1.55;;;9.40;81.60;;;;;;5044452;28;20033;-77
2023/12/22 09:16:09;;;;;;;2.50;1.75;;;9.50;81.50;;;;;;5028509;28;20478;-78
2023/12/22 09:18:36;;;;;;;4.50;1.85;;;9.50;81.50;;;;;;5043707;28;20090;-77
2023/12/22 09:21:02;;;;;;;3.03;1.70;;;9.50;81.50;;;;;;5041774;28;20101;-77
2023/12/22 09:23:29;;;;;;;3.95;1.88;;;9.50;81.50;;;;;;5027085;28;20028;-77
2023/12/22 09:25:55;;;;;;;3.13;1.50;;;9.50;81.50;;;;;;5023978;28;20527;-78
2023/12/22 09:28:21;;;;;;;3.65;1.50;;;9.50;81.40;;;;;;5027786;28;20025;-78
2023/12/22 09:30:47;;;;;;;4.90;1.48;;;9.60;81.50;;;;;;5046438;28;20369;-78
2023/12/22 09:33:14;;;;;;;2.78;1.73;;;9.60;81.50;;;;;;5028392;28;20373;-78
2023/12/22 09:35:41;;;;;;;3.20;1.73;;;9.60;81.50;;;;;;5000487;28;20072;-78
2023/12/22 09:38:12;;;;;;;1.90;1.30;;;9.60;81.40;;;;;;5012118;28;20112;-79
2023/12/22 09:40:39;;;;;;;3.80;1.58;;;9.60;81.40;;;;;;5021620;28;20049;-77
2023/12/22 09:43:06;;;;;;;3.30;1.48;;;9.60;81.40;;;;;;5029326;28;20036;-77
2023/12/22 09:45:36;;;;;;;3.42;1.70;;;9.60;81.40;;;;;;5031915;28;20043;-78
2023/12/22 09:48:03;;;;;;;1.98;1.48;;;9.70;81.50;;;;;;5029945;28;20087;-78
2023/12/22 09:50:30;;;;;;;3.28;1.40;;;9.70;81.40;;;;;;5039638;28;20065;-78
2023/12/22 09:52:56;;;;;;;4.80;1.67;;;9.70;81.40;;;;;;5047744;28;20067;-79
2023/12/22 09:55:23;;;;;;;4.00;1.80;;;9.70;82.10;;;;;;5026533;28;20028;-77
2023/12/22 09:57:50;;;;;;;2.60;1.40;;;9.70;81.40;;;;;;5039429;28;20087;-79
2023/12/22 10:00:17;;;;;;;2.70;1.40;;;9.70;81.40;;;;;;5041764;28;20116;-79
2023/12/22 10:02:45;;;;;;;2.70;1.45;;;9.70;81.40;;;;;;5028238;28;20021;-79
2023/12/22 10:05:13;;;;;;;1.98;1.30;;;9.80;81.50;;;;;;5032284;28;20124;-79
2023/12/22 10:07:40;;;;;;;2.50;1.23;;;9.80;81.40;;;;;;5045261;28;20047;-79
2023/12/22 10:10:07;;;;;;;2.75;1.42;;;9.80;81.40;;;;;;5027706;28;20037;-78
2023/12/22 10:12:34;;;;;;;1.17;1.08;;;9.80;81.40;;;;;;5018928;28;20025;-78
2023/12/22 10:15:01;;;;;;;1.40;1.10;;;9.80;81.30;;;;;;5042412;28;20116;-78
2023/12/22 10:17:28;;;;;;;1.08;1.00;;;9.90;82.00;;;;;;5024285;28;20453;-80
2023/12/22 10:19:54;;;;;;;1.67;1.20;;;9.90;81.40;;;;;;5034825;28;20033;-80
2023/12/22 10:22:22;;;;;;;1.20;1.10;;;9.90;81.40;;;;;;5042199;28;20063;-79
2023/12/22 10:24:50;;;;;;;3.00;1.10;;;9.90;81.30;;;;;;5042434;28;20033;-78
2023/12/22 10:27:22;;;;;;;1.02;1.00;;;9.90;81.30;;;;;;5031816;28;20040;-78
2023/12/22 10:29:57;;;;;;;1.48;1.10;;;9.90;81.30;;;;;;5024817;28;20186;-79
2023/12/22 10:32:22;;;;;;;;;;;9.90;81.30;;;;;;5014203;28;20090;-78
2023/12/22 10:34:51;;;;;;;1.05;1.00;;;9.90;81.10;;;;;;5043543;28;20374;-79
2023/12/22 10:37:16;;;;;;;1.30;1.00;;;10.00;81.10;;;;;;5050080;28;20045;-79
2023/12/22 10:39:42;;;;;;;1.08;0.95;;;10.00;81.20;;;;;;5034988;28;20041;-79
2023/12/22 10:42:09;;;;;;;1.75;1.10;;;10.00;81.20;;;;;;5035672;28;20490;-79
2023/12/22 10:44:39;;;;;;;1.10;1.00;;;10.00;81.30;;;;;;5029276;28;20040;-78
2023/12/22 10:47:06;;;;;;;1.00;1.00;;;10.00;81.20;;;;;;5029221;28;20122;-78
2023/12/22 10:49:33;;;;;;;1.95;1.25;;;10.00;81.20;;;;;;5035272;28;20112;-78
2023/12/22 10:51:59;;;;;;;1.70;1.05;;;10.00;81.20;;;;;;5034759;28;20470;-78
2023/12/22 10:54:25;;;;;;;1.65;1.08;;;10.10;81.30;;;;;;5034857;28;20040;-78
2023/12/22 10:56:52;;;;;;;2.33;1.65;;;10.10;81.30;;;;;;5030139;28;20032;-78
2023/12/22 10:59:22;;;;;;;1.85;1.27;;;10.10;81.30;;;;;;5027746;28;20052;-79
2023/12/22 11:01:51;;;;;;;1.63;1.10;;;10.10;81.30;;;;;;5046781;28;20496;-79
2023/12/22 11:04:20;;;;;;;1.63;1.33;;;10.10;81.30;;;;;;5043175;28;20021;-78
2023/12/22 11:06:48;;;;;;;2.38;1.20;;;10.10;81.30;;;;;;5032165;28;20060;-77
2023/12/22 11:09:17;;;;;;;1.40;1.15;;;10.10;81.30;;;;;;5019747;28;20029;-80
2023/12/22 11:11:44;;;;;;;2.63;1.20;;;10.20;81.30;;;;;;5028614;28;20084;-79
2023/12/22 11:14:11;;;;;;;1.58;1.20;;;10.20;81.30;;;;;;5045742;28;20021;-77
2023/12/22 11:16:36;;;;;;;1.40;1.30;;;10.20;81.30;;;;;;5049156;28;20534;-78
2023/12/22 11:19:03;;;;;;;1.52;1.10;;;10.20;81.30;;;;;;5027893;28;20037;-78
2023/12/22 11:21:30;;;;;;;1.15;1.00;;;10.20;81.30;;;;;;5027983;28;20111;-79
2023/12/22 11:23:57;;;;;;;1.52;1.20;;;10.20;81.30;;;;;;5024289;28;20053;-77
2023/12/22 11:26:23;;;;;;;1.33;1.00;;;10.30;81.30;;;;;;5044127;28;20025;-77
2023/12/22 11:28:50;;;;;;;2.13;1.10;;;10.20;81.30;;;;;;5024796;28;20040;-78
2023/12/22 11:31:17;;;;;;;1.55;1.08;;;10.30;81.30;;;;;;5025392;28;20466;-78
2023/12/22 11:33:45;;;;;;;1.45;1.17;;;10.30;81.90;;;;;;5023825;28;20132;-79
2023/12/22 11:36:12;;;;;;;2.33;1.10;;;10.30;81.30;;;;;;5033028;28;20040;-78
2023/12/22 11:38:43;;;;;;;2.25;1.13;;;10.30;81.30;;;;;;5017911;28;20466;-78
2023/12/22 11:41:25;;;;;;;1.42;1.00;;;10.40;81.30;;;;;;5049292;28;20045;-78
2023/12/22 11:43:52;;;;;;;1.25;1.10;;;10.40;81.30;;;;;;5026359;28;20075;-80
2023/12/22 11:46:18;;;;;;;1.60;1.20;;;10.40;81.20;;;;;;5032347;28;20060;-78
2023/12/22 11:48:48;;;;;;;3.15;1.30;;;10.40;81.20;;;;;;5033665;28;20060;-79
2023/12/22 11:51:16;;;;;;;1.77;1.20;;;10.40;81.20;;;;;;5047368;28;20380;-79
2023/12/22 11:53:42;;;;;;;1.10;1.00;;;10.40;81.20;;;;;;5024963;28;20527;-79
2023/12/22 11:56:09;;;;;;;1.08;0.98;;;10.50;81.30;;;;;;5044059;28;20029;-79
2023/12/22 11:58:51;;;;;;;1.15;1.05;;;10.50;81.30;;;;;;5041938;28;20029;-78
2023/12/22 12:01:18;;;;;;;3.28;1.30;;;10.50;81.30;;;;;;5047185;28;20057;-78
2023/12/22 12:03:51;;;;;;;1.27;1.10;;;10.50;81.20;;;;;;5010304;28;20072;-78
2023/12/22 12:06:32;;;;;;;1.38;1.20;;;10.50;81.20;;;;;;5047064;28;20029;-80
2023/12/22 12:09:00;;;;;;;1.75;1.08;;;10.50;81.20;;;;;;5023319;28;20025;-79
2023/12/22 12:11:51;;;;;;;2.50;1.10;;;10.60;81.20;;;;;;5032082;28;20033;-78
2023/12/22 12:14:22;;;;;;;2.92;1.73;;;10.60;81.30;;;;;;5019763;28;20030;-78
2023/12/22 12:16:49;;;;;;;1.00;1.00;;;10.60;81.20;;;;;;5029119;28;20470;-78
2023/12/22 12:19:15;;;;;;;1.30;1.20;;;10.60;81.20;;;;;;5030517;28;20048;-78
2023/12/22 12:21:41;;;;;;;2.28;1.20;;;10.60;81.20;;;;;;5011727;28;20037;-78
2023/12/22 12:24:09;;;;;;;2.53;1.10;;;10.70;81.20;;;;;;5030038;28;20128;-78
2023/12/22 12:26:35;;;;;;;1.63;1.00;;;10.70;81.20;;;;;;5033568;28;20496;-78
2023/12/22 12:29:02;;;;;;;1.00;1.00;;;10.70;81.20;;;;;;5027196;28;20104;-78
2023/12/22 12:31:38;;;;;;;2.60;1.30;;;10.70;81.20;;;;;;5031580;28;20037;-78
2023/12/22 12:34:05;;;;;;;2.15;1.20;;;10.80;81.20;;;;;;5040224;28;20018;-78
2023/12/22 12:36:32;;;;;;;1.00;1.00;;;10.80;81.20;;;;;;5008683;28;20121;-78
2023/12/22 12:39:08;;;;;;;1.88;1.25;;;10.80;81.20;;;;;;5025601;28;20037;-79
2023/12/22 12:41:40;;;;;;;1.08;0.98;;;10.80;81.20;;;;;;5038469;28;20053;-78
2023/12/22 12:44:07;;;;;;;1.98;1.10;;;10.80;81.10;;;;;;5041003;28;20473;-79
2023/12/22 12:46:35;;;;;;;1.27;1.10;;;10.80;81.10;;;;;;5029516;28;20037;-78
2023/12/22 12:49:16;;;;;;;2.35;1.38;;;10.80;81.10;;;;;;5040696;28;20390;-78
2023/12/22 12:51:47;;;;;;;1.38;1.10;;;10.90;81.20;;;;;;5046045;28;20041;-79
2023/12/22 12:54:14;;;;;;;2.08;1.20;;;10.90;81.10;;;;;;5027847;28;20032;-79